createdAt,value
2018-04-14T00:03:34.066Z,100779.37
2018-04-14T00:08:35.041Z,100758.26
2018-04-14T00:13:36.013Z,100774.77
2018-04-14T00:18:36.969Z,100769.47
2018-04-14T00:23:37.923Z,100764.86
2018-04-14T00:28:38.912Z,100756.66
2018-04-14T00:33:39.883Z,100750.75
2018-04-14T00:38:40.857Z,100747.90
2018-04-14T00:43:41.844Z,100719.94
2018-04-14T00:48:42.811Z,100716.06
2018-04-14T00:53:46.595Z,100697.21
2018-04-14T00:58:47.589Z,100716.31
2018-04-14T01:03:48.564Z,100710.39
2018-04-14T01:08:49.510Z,100714.48
2018-04-14T01:13:50.480Z,100716.75
2018-04-14T01:18:51.467Z,100722.22
2018-04-14T01:23:52.439Z,100719.29
2018-04-14T01:28:53.430Z,100732.43
2018-04-14T01:33:54.396Z,100735.26
2018-04-14T01:38:55.339Z,100736.16
2018-04-14T01:43:56.333Z,100751.05
2018-04-14T01:48:57.348Z,100769.87
2018-04-14T01:53:58.303Z,100767.17
2018-04-14T01:58:59.279Z,100778.77
2018-04-14T02:04:00.235Z,100803.97
2018-04-14T02:09:01.187Z,100826.91
2018-04-14T02:14:02.151Z,100832.05
2018-04-14T02:19:03.126Z,100832.53
2018-04-14T02:24:04.067Z,100831.55
2018-04-14T02:29:05.043Z,100828.28
2018-04-14T02:34:06.012Z,100818.95
2018-04-14T02:39:06.994Z,100815.02
2018-04-14T02:44:07.972Z,100822.63
2018-04-14T02:49:08.929Z,100818.30
2018-04-14T02:54:09.887Z,100811.86
2018-04-14T02:59:10.953Z,100810.77
2018-04-14T03:04:11.864Z,100807.80
2018-04-14T03:09:12.816Z,100816.28
2018-04-14T03:14:13.771Z,100798.83
2018-04-14T03:19:14.763Z,100775.16
2018-04-14T03:24:15.727Z,100787.88
2018-04-14T03:29:16.729Z,100791.75
2018-04-14T03:34:17.690Z,100797.97
2018-04-14T03:39:18.644Z,100805.43
2018-04-14T03:44:19.625Z,100798.75
2018-04-14T03:49:20.604Z,100794.45
2018-04-14T03:54:21.560Z,100792.17
2018-04-14T03:59:22.564Z,100792.63
2018-04-14T04:04:23.540Z,100803.53
2018-04-14T04:09:24.513Z,100809.48
2018-04-14T04:14:25.484Z,100817.36
2018-04-14T04:19:38.710Z,100821.62
2018-04-14T04:24:52.053Z,100814.51
2018-04-14T04:29:53.066Z,100819.94
2018-04-14T04:34:54.072Z,100832.34
2018-04-14T04:39:55.055Z,100836.58
2018-04-14T04:44:56.035Z,100839.14
2018-04-14T04:49:57.025Z,100850.07
2018-04-14T04:54:58.015Z,100852.99
2018-04-14T04:59:59.000Z,100857.55
2018-04-14T05:04:59.992Z,100865.86
2018-04-14T05:10:00.981Z,100863.02
2018-04-14T05:15:01.968Z,100856.59
2018-04-14T05:20:02.943Z,100855.20
2018-04-14T05:25:03.896Z,100875.98
2018-04-14T05:30:04.893Z,100872.22
2018-04-14T05:35:05.863Z,100837.95
2018-04-14T05:40:06.836Z,100876.42
2018-04-14T05:45:07.809Z,100878.50
2018-04-14T05:50:08.813Z,100872.52
2018-04-14T05:55:09.795Z,100875.38
2018-04-14T06:00:10.787Z,100888.34
2018-04-14T06:05:11.783Z,100890.42
2018-04-14T06:10:12.767Z,100888.41
2018-04-14T06:15:13.732Z,100891.38
2018-04-14T06:20:14.719Z,100895.36
2018-04-14T06:25:15.687Z,100915.71
2018-04-14T06:30:16.707Z,100945.37
2018-04-14T06:35:17.690Z,100956.45
2018-04-14T06:40:18.700Z,100960.16
2018-04-14T06:45:19.724Z,100960.05
2018-04-14T06:50:21.373Z,100964.81
2018-04-14T06:55:22.339Z,100968.93
2018-04-14T07:00:23.314Z,100968.48
2018-04-14T07:05:24.311Z,100976.37
2018-04-14T07:10:25.313Z,100975.39
2018-04-14T07:15:26.300Z,100976.80
2018-04-14T07:20:27.285Z,100971.41
2018-04-14T07:25:29.078Z,100971.33
2018-04-14T07:30:30.113Z,100975.25
2018-04-14T07:35:31.106Z,100989.33
2018-04-14T07:40:32.079Z,100992.92
2018-04-14T07:45:33.073Z,100993.84
2018-04-14T07:50:34.032Z,100989.93
2018-04-14T07:55:35.026Z,100976.63
2018-04-14T08:00:36.052Z,100988.99
2018-04-14T08:05:37.017Z,100978.38
2018-04-14T08:10:37.989Z,100988.76
2018-04-14T08:15:38.985Z,100981.89
2018-04-14T08:20:39.973Z,100999.27
2018-04-14T08:25:40.998Z,100989.93
2018-04-14T08:30:42.068Z,100984.94
2018-04-14T08:35:43.056Z,100996.22
2018-04-14T08:40:44.033Z,101001.92
2018-04-14T08:45:44.998Z,100999.26
2018-04-14T08:50:45.972Z,100989.95
2018-04-14T08:55:46.932Z,100998.72
2018-04-14T09:00:47.923Z,101013.63
2018-04-14T09:05:48.910Z,101013.39
2018-04-14T09:10:49.868Z,101040.27
2018-04-14T09:15:50.846Z,101042.45
2018-04-14T09:20:51.851Z,101043.61
2018-04-14T09:25:52.831Z,101036.17
2018-04-14T09:30:53.836Z,101044.11
2018-04-14T09:35:54.815Z,101048.30
2018-04-14T09:40:55.796Z,101056.81
2018-04-14T09:45:56.784Z,101057.75
2018-04-14T09:50:57.772Z,101064.69
2018-04-14T09:55:58.751Z,101059.30
2018-04-14T10:01:00.786Z,101056.61
2018-04-14T10:06:01.769Z,101055.05
2018-04-14T10:11:02.768Z,101064.71
2018-04-14T10:16:03.771Z,101074.59
2018-04-14T10:21:04.769Z,101088.06
2018-04-14T10:26:05.770Z,101082.96
2018-04-14T10:31:06.774Z,101081.37
2018-04-14T10:36:07.756Z,101101.45
2018-04-14T10:41:08.732Z,101096.03
2018-04-14T10:46:09.743Z,101096.03
2018-04-14T10:51:10.732Z,101106.94
2018-04-14T10:56:11.749Z,101107.98
2018-04-14T11:01:12.742Z,101106.02
2018-04-14T11:06:13.709Z,101109.02
2018-04-14T11:11:14.701Z,101110.00
2018-04-14T11:16:15.679Z,101112.91
2018-04-14T11:21:16.650Z,101122.23
2018-04-14T11:26:17.618Z,101136.29
2018-04-14T11:31:18.713Z,101148.27
2018-04-14T11:36:19.651Z,101149.14
2018-04-14T11:41:20.648Z,101152.23
2018-04-14T11:46:21.602Z,101159.08
2018-04-14T11:51:22.594Z,101170.77
2018-04-14T11:56:23.580Z,101172.03
2018-04-14T12:01:24.580Z,101178.95
2018-04-14T12:06:25.578Z,101195.96
2018-04-14T12:11:26.564Z,101195.09
2018-04-14T12:16:27.560Z,101191.55
2018-04-14T12:21:28.581Z,101207.16
2018-04-14T12:26:30.381Z,101209.08
2018-04-14T12:31:31.486Z,101218.86
2018-04-14T12:36:32.476Z,101226.94
2018-04-14T12:41:33.493Z,101222.21
2018-04-14T12:46:35.994Z,101232.45
2018-04-14T12:51:37.076Z,101249.68
2018-04-14T12:56:38.058Z,101258.46
2018-04-14T13:01:39.058Z,101262.17
2018-04-14T13:06:40.071Z,101278.22
2018-04-14T13:11:41.088Z,101269.66
2018-04-14T13:16:42.089Z,101275.02
2018-04-14T13:21:43.079Z,101288.48
2018-04-14T13:26:44.040Z,101285.95
2018-04-14T13:31:45.093Z,101289.23
2018-04-14T13:36:46.088Z,101287.84
2018-04-14T13:41:47.076Z,101290.02
2018-04-14T13:46:48.082Z,101294.05
2018-04-14T13:51:49.089Z,101297.59
2018-04-14T13:56:50.075Z,101303.17
2018-04-14T14:01:51.077Z,101290.65
2018-04-14T14:06:52.059Z,101295.10
2018-04-14T14:11:53.057Z,101291.94
2018-04-14T14:16:54.041Z,101296.97
2018-04-14T14:21:55.052Z,101302.27
2018-04-14T14:26:56.036Z,101299.91
2018-04-14T14:31:57.070Z,101300.61
2018-04-14T14:36:58.072Z,101298.88
2018-04-14T14:41:59.066Z,101310.59
2018-04-14T14:47:00.741Z,101306.11
2018-04-14T14:52:01.757Z,101301.19
2018-04-14T14:57:02.778Z,101307.09
2018-04-14T15:02:03.771Z,101318.22
2018-04-14T15:07:04.841Z,101315.32
2018-04-14T15:12:05.844Z,101314.86
2018-04-14T15:17:06.806Z,101323.90
2018-04-14T15:22:07.774Z,101315.73
2018-04-14T15:27:08.787Z,101309.70
2018-04-14T15:32:09.809Z,101318.81
2018-04-14T15:37:10.787Z,101324.13
2018-04-14T15:42:11.769Z,101331.59
2018-04-14T15:47:12.745Z,101338.47
2018-04-14T15:52:13.716Z,101344.72
2018-04-14T15:57:15.184Z,101349.45
2018-04-14T16:02:16.185Z,101352.28
2018-04-14T16:07:17.177Z,101353.84
2018-04-14T16:12:18.173Z,101362.77
2018-04-14T16:17:19.163Z,101367.19
2018-04-14T16:22:20.163Z,101367.12
2018-04-14T16:27:21.158Z,101372.91
2018-04-14T16:32:22.167Z,101374.91
2018-04-14T16:37:23.128Z,101391.02
2018-04-14T16:42:24.107Z,101380.27
2018-04-14T16:47:25.095Z,101383.25
2018-04-14T16:52:26.089Z,101391.75
2018-04-14T16:57:27.105Z,101397.02
2018-04-14T17:02:28.171Z,101390.04
2018-04-14T17:07:29.144Z,101399.05
2018-04-14T17:12:30.135Z,101396.77
2018-04-14T17:17:31.136Z,101399.02
2018-04-14T17:22:32.152Z,101401.91
2018-04-14T17:27:33.153Z,101401.25
2018-04-14T17:32:34.225Z,101383.11
2018-04-14T17:37:35.209Z,101392.01
2018-04-14T17:42:36.189Z,101391.20
2018-04-14T17:47:37.192Z,101387.33
2018-04-14T17:52:38.182Z,101398.91
2018-04-14T17:57:39.201Z,101393.95
2018-04-14T18:02:40.237Z,101397.40
2018-04-14T18:07:41.206Z,101401.59
2018-04-14T18:12:42.203Z,101401.73
2018-04-14T18:17:43.253Z,101401.22
2018-04-14T18:22:44.293Z,101409.33
2018-04-14T18:27:45.280Z,101404.31
2018-04-14T18:32:46.294Z,101417.13
2018-04-14T18:37:47.285Z,101423.23
2018-04-14T18:42:48.270Z,101435.25
2018-04-14T18:47:49.324Z,101441.41
2018-04-14T18:52:50.340Z,101448.66
2018-04-14T18:57:51.353Z,101444.20
2018-04-14T19:02:52.397Z,101445.97
2018-04-14T19:07:53.423Z,101453.56
2018-04-14T19:12:54.446Z,101446.90
2018-04-14T19:17:55.443Z,101458.15
2018-04-14T19:22:56.452Z,101453.80
2018-04-14T19:27:57.472Z,101452.15
2018-04-14T19:32:58.526Z,101460.02
2018-04-14T19:37:59.557Z,101463.77
2018-04-14T19:43:00.575Z,101462.67
2018-04-14T19:48:01.611Z,101468.86
2018-04-14T19:53:02.695Z,101476.30
2018-04-14T19:58:03.712Z,101476.43
2018-04-14T20:03:04.777Z,101466.86
2018-04-14T20:08:05.824Z,101478.59
2018-04-14T20:13:06.861Z,101474.98
2018-04-14T20:18:07.895Z,101480.61
2018-04-14T20:23:08.905Z,101486.69
2018-04-14T20:28:09.951Z,101486.92
2018-04-14T20:33:11.018Z,101488.30
2018-04-14T20:38:12.020Z,101485.26
2018-04-14T20:43:13.066Z,101496.41
2018-04-14T20:48:14.772Z,101487.56
2018-04-14T20:53:15.888Z,101495.42
2018-04-14T20:58:16.889Z,101497.17
2018-04-14T21:03:17.953Z,101493.03
2018-04-14T21:08:18.940Z,101493.81
2018-04-14T21:13:19.937Z,101484.58
2018-04-14T21:18:20.923Z,101493.70
2018-04-14T21:23:21.935Z,101501.44
2018-04-14T21:28:23.479Z,101498.23
2018-04-14T21:33:24.478Z,101492.20
2018-04-14T21:38:25.482Z,101497.34
2018-04-14T21:43:26.438Z,101494.06
2018-04-14T21:48:27.435Z,101470.27
2018-04-14T21:53:28.448Z,101489.78
2018-04-14T21:58:29.441Z,101489.98
2018-04-14T22:03:30.448Z,101475.34
2018-04-14T22:08:31.451Z,101491.52
2018-04-14T22:13:32.452Z,101488.27
2018-04-14T22:18:33.456Z,101479.62
2018-04-14T22:23:34.419Z,101479.49
2018-04-14T22:28:35.415Z,101489.06
2018-04-14T22:33:36.456Z,101493.39
2018-04-14T22:38:37.423Z,101484.81
2018-04-14T22:43:38.433Z,101489.75
2018-04-14T22:48:39.375Z,101477.47
2018-04-14T22:53:40.372Z,101483.39
2018-04-14T22:58:41.338Z,101493.70
2018-04-14T23:03:42.322Z,101508.37
2018-04-14T23:08:43.292Z,101514.90
2018-04-14T23:13:44.307Z,101521.41
2018-04-14T23:18:45.274Z,101539.98
2018-04-14T23:23:46.249Z,101544.83
2018-04-14T23:28:47.224Z,101538.06
2018-04-14T23:33:48.208Z,101548.46
2018-04-14T23:38:49.193Z,101576.58
2018-04-14T23:43:50.165Z,101526.34
2018-04-14T23:48:51.123Z,101539.67
2018-04-14T23:53:52.066Z,101531.28
2018-04-14T23:58:53.059Z,101535.22
